Time;durP1;ratioP1;P1;durP2;ratioP2;P2;SDS_P1;SDS_P2;PMS_P1;PMS_P2;Temp;Humidity;BMP_temperature;BMP_pressure;BME280_temperature;BME280_humidity;BME280_pressure;Samples;Min_cycle;Max_cycle;Signal;HPM_P1;HPM_P2
2022/04/06 00:01:43;;;;;;;4.53;2.87;;;7.70;99.90;;;;;;5075679;28;20449;-83
2022/04/06 00:04:09;;;;;;;3.27;2.10;;;7.90;99.90;;;;;;5076033;28;20414;-88
2022/04/06 00:06:35;;;;;;;6.13;3.10;;;8.00;99.90;;;;;;5075663;28;20836;-84
2022/04/06 00:09:01;;;;;;;5.10;3.20;;;8.10;99.90;;;;;;5075479;28;20175;-86
2022/04/06 00:11:26;;;;;;;6.10;4.00;;;8.20;99.90;;;;;;5075368;28;20218;-88
2022/04/06 00:13:52;;;;;;;4.87;2.90;;;8.20;99.90;;;;;;5076626;28;20195;-82
2022/04/06 00:16:18;;;;;;;4.53;3.40;;;8.30;99.90;;;;;;5075355;28;20257;-84
2022/04/06 00:18:43;;;;;;;5.57;3.30;;;8.30;99.90;;;;;;5075581;28;20172;-83
2022/04/06 00:21:10;;;;;;;5.43;3.73;;;8.30;99.90;;;;;;5072660;28;20461;-88
2022/04/06 00:23:36;;;;;;;8.20;4.70;;;8.30;99.90;;;;;;5075509;28;20500;-87
2022/04/06 00:26:02;;;;;;;5.03;4.17;;;8.30;99.90;;;;;;5075308;28;20423;-88
2022/04/06 00:28:27;;;;;;;6.77;3.33;;;8.30;99.90;;;;;;5075385;28;20581;-85
2022/04/06 00:30:53;;;;;;;4.70;3.27;;;8.30;99.90;;;;;;5075673;28;20449;-84
2022/04/06 00:33:22;;;;;;;5.50;3.43;;;8.30;99.90;;;;;;5073588;28;20182;-84
2022/04/06 00:35:47;;;;;;;7.57;4.47;;;8.30;99.90;;;;;;5074606;28;20166;-86
2022/04/06 00:38:19;;;;;;;6.30;3.50;;;8.30;99.90;;;;;;5074220;28;20424;-83
2022/04/06 00:40:45;;;;;;;5.10;3.30;;;8.40;99.90;;;;;;5074283;28;20170;-86
2022/04/06 00:43:13;;;;;;;7.70;3.50;;;8.30;99.90;;;;;;5072958;28;20486;-84
2022/04/06 00:45:40;;;;;;;5.90;3.40;;;8.40;99.90;;;;;;5074191;28;20172;-85
2022/04/06 00:48:06;;;;;;;7.83;4.70;;;8.30;99.90;;;;;;5074253;28;20505;-84
2022/04/06 00:50:33;;;;;;;6.83;3.70;;;8.40;99.90;;;;;;5073944;28;20440;-82
2022/04/06 00:52:59;;;;;;;4.87;2.73;;;8.30;99.90;;;;;;5074767;28;20511;-83
2022/04/06 00:55:28;;;;;;;6.50;3.37;;;8.30;99.90;;;;;;5074359;28;20771;-88
2022/04/06 00:57:54;;;;;;;6.10;3.20;;;8.40;99.90;;;;;;5073329;28;20510;-83
2022/04/06 01:00:20;;;;;;;4.90;3.60;;;8.40;99.90;;;;;;5074903;28;20804;-85
2022/04/06 01:02:47;;;;;;;3.50;2.27;;;8.40;99.90;;;;;;5074984;28;20166;-89
2022/04/06 01:05:13;;;;;;;3.70;2.70;;;8.40;99.90;;;;;;5074795;28;20622;-83
2022/04/06 01:07:39;;;;;;;3.30;2.10;;;8.30;99.90;;;;;;5074514;28;20496;-83
2022/04/06 01:10:05;;;;;;;3.80;3.40;;;8.40;99.90;;;;;;5073929;28;20769;-82
2022/04/06 01:12:35;;;;;;;3.60;2.07;;;8.30;99.90;;;;;;5074528;28;20468;-83
2022/04/06 01:15:00;;;;;;;4.50;3.20;;;8.30;99.90;;;;;;5081747;28;20545;-82
2022/04/06 01:17:32;;;;;;;3.93;2.23;;;8.40;99.90;;;;;;5081954;28;20417;-82
2022/04/06 01:20:00;;;;;;;3.97;2.47;;;8.40;99.90;;;;;;5086555;28;20228;-86
2022/04/06 01:22:26;;;;;;;5.13;3.13;;;8.40;99.90;;;;;;5076390;28;20458;-84
2022/04/06 01:24:52;;;;;;;3.40;1.90;;;8.40;99.90;;;;;;5082866;28;20759;-83
2022/04/06 01:27:17;;;;;;;3.20;1.67;;;8.40;99.90;;;;;;5087394;28;20487;-83
2022/04/06 01:29:44;;;;;;;4.07;2.60;;;8.40;99.90;;;;;;5083668;28;20182;-83
2022/04/06 01:32:24;;;;;;;4.00;1.87;;;8.40;99.90;;;;;;5078719;28;20223;-82
2022/04/06 01:34:53;;;;;;;2.50;1.50;;;8.40;99.90;;;;;;5079313;28;20405;-81
2022/04/06 01:37:24;;;;;;;3.67;1.47;;;8.40;99.90;;;;;;5078501;28;20518;-82
2022/04/06 01:39:50;;;;;;;2.43;1.73;;;8.40;99.90;;;;;;5081289;28;20466;-81
2022/04/06 01:42:18;;;;;;;16.20;2.93;;;8.40;99.90;;;;;;5080037;28;20507;-81
2022/04/06 01:44:45;;;;;;;2.97;1.83;;;8.40;99.90;;;;;;5082802;28;20476;-81
2022/04/06 01:47:12;;;;;;;3.57;1.67;;;8.50;99.90;;;;;;5083833;28;20414;-82
2022/04/06 01:52:22;;;;;;;3.37;2.00;;;8.40;99.90;;;;;;5086259;28;20555;-83
2022/04/06 01:54:51;;;;;;;3.70;1.60;;;8.50;99.90;;;;;;5083570;28;20437;-90
2022/04/06 01:57:18;;;;;;;2.93;1.30;;;8.40;99.90;;;;;;5081873;28;20182;-87
2022/04/06 01:59:44;;;;;;;2.30;1.77;;;8.40;99.90;;;;;;5082922;28;20417;-87
2022/04/06 02:02:13;;;;;;;2.80;1.40;;;8.40;99.90;;;;;;5081878;28;20437;-90
2022/04/06 02:04:39;;;;;;;3.60;1.83;;;8.40;99.90;;;;;;5080156;28;20402;-84
2022/04/06 02:07:05;;;;;;;2.17;1.13;;;8.40;99.90;;;;;;5079546;28;20408;-88
2022/04/06 02:09:31;;;;;;;4.63;2.07;;;8.40;99.90;;;;;;5081288;28;20497;-87
2022/04/06 02:11:59;;;;;;;3.63;1.80;;;8.40;99.90;;;;;;5077923;28;20551;-86
2022/04/06 02:14:25;;;;;;;3.53;2.10;;;8.40;99.90;;;;;;5076229;28;20227;-84
2022/04/06 02:16:51;;;;;;;3.33;1.40;;;8.40;99.90;;;;;;5077515;28;20419;-90
2022/04/06 02:19:20;;;;;;;4.00;2.00;;;8.40;99.90;;;;;;5077463;28;20519;-83
2022/04/06 02:21:46;;;;;;;3.60;2.43;;;8.30;99.90;;;;;;5076714;28;20270;-88
2022/04/06 02:24:11;;;;;;;2.67;1.80;;;8.40;99.90;;;;;;5076907;28;20497;-84
2022/04/06 02:26:37;;;;;;;2.60;2.20;;;8.30;99.90;;;;;;5077223;28;20314;-88
2022/04/06 02:29:03;;;;;;;4.93;2.83;;;8.30;99.90;;;;;;5077332;28;20170;-85
2022/04/06 02:31:29;;;;;;;6.97;1.90;;;8.30;99.90;;;;;;5077184;28;20206;-86
2022/04/06 02:33:54;;;;;;;5.73;2.63;;;8.30;99.90;;;;;;5077237;28;20419;-88
2022/04/06 02:36:19;;;;;;;3.07;1.57;;;8.30;99.90;;;;;;5076746;28;20171;-86
2022/04/06 02:38:46;;;;;;;3.67;2.37;;;8.30;99.90;;;;;;5077014;28;20543;-85
2022/04/06 02:41:13;;;;;;;7.87;3.10;;;8.30;99.90;;;;;;5075678;28;20170;-84
2022/04/06 02:43:38;;;;;;;6.13;2.80;;;8.30;99.90;;;;;;5076639;28;20418;-88
2022/04/06 02:46:04;;;;;;;3.90;2.60;;;8.30;99.90;;;;;;5076551;28;20473;-85
2022/04/06 02:48:30;;;;;;;4.83;3.07;;;8.30;99.90;;;;;;5076416;28;20186;-85
2022/04/06 02:50:55;;;;;;;5.10;2.70;;;8.30;99.90;;;;;;5076075;28;20190;-86
2022/04/06 02:53:21;;;;;;;4.90;3.10;;;8.30;99.90;;;;;;5076228;28;20548;-85
2022/04/06 02:55:48;;;;;;;4.60;2.83;;;8.30;99.90;;;;;;5076363;28;20172;-84
2022/04/06 02:58:13;;;;;;;6.33;3.27;;;8.30;99.90;;;;;;5074817;28;20443;-84
2022/04/06 03:00:42;;;;;;;7.60;2.90;;;8.30;99.90;;;;;;5076408;28;20532;-85
2022/04/06 03:03:08;;;;;;;5.63;4.33;;;8.30;99.90;;;;;;5075996;28;20180;-84
2022/04/06 03:05:33;;;;;;;7.13;3.43;;;8.30;99.90;;;;;;5076076;28;20409;-86
2022/04/06 03:07:59;;;;;;;6.70;4.47;;;8.30;99.90;;;;;;5076051;28;20219;-85
2022/04/06 03:10:24;;;;;;;5.80;3.47;;;8.30;99.90;;;;;;5076091;28;20167;-86
2022/04/06 03:12:50;;;;;;;6.00;4.20;;;8.40;99.90;;;;;;5076025;28;20674;-84
2022/04/06 03:15:15;;;;;;;7.17;3.87;;;8.30;99.90;;;;;;5075928;28;20253;-84
2022/04/06 03:17:41;;;;;;;5.73;4.17;;;8.40;99.90;;;;;;5074737;28;20175;-84
2022/04/06 03:20:14;;;;;;;6.47;3.77;;;8.40;99.90;;;;;;5074617;28;20176;-85
2022/04/06 03:22:41;;;;;;;6.13;4.07;;;8.40;99.90;;;;;;5075092;28;21048;-84
2022/04/06 03:25:07;;;;;;;7.87;4.50;;;8.30;99.90;;;;;;5074184;28;20481;-86
2022/04/06 03:27:34;;;;;;;7.33;5.53;;;8.30;99.90;;;;;;5075689;28;20907;-84
2022/04/06 03:30:00;;;;;;;8.60;5.83;;;8.40;99.90;;;;;;5075412;28;20414;-85
2022/04/06 03:32:28;;;;;;;9.10;5.00;;;8.30;99.90;;;;;;5075475;28;20460;-84
2022/04/06 03:34:54;;;;;;;10.37;5.57;;;8.40;99.90;;;;;;5074100;28;20496;-83
2022/04/06 03:37:19;;;;;;;7.37;5.83;;;8.40;99.90;;;;;;5075086;28;20470;-88
2022/04/06 03:39:45;;;;;;;12.40;6.67;;;8.40;99.90;;;;;;5074258;28;20182;-84
2022/04/06 03:42:10;;;;;;;10.80;7.67;;;8.40;99.90;;;;;;5075335;28;20663;-86
2022/04/06 03:44:36;;;;;;;8.80;7.33;;;8.40;99.90;;;;;;5075034;28;20198;-84
2022/04/06 03:47:02;;;;;;;12.80;6.97;;;8.40;99.90;;;;;;5075252;28;20170;-84
2022/04/06 03:49:27;;;;;;;12.83;7.83;;;8.40;99.90;;;;;;5075091;28;20530;-84
2022/04/06 03:51:53;;;;;;;10.00;6.70;;;8.40;99.90;;;;;;5074804;28;20295;-84
2022/04/06 03:54:18;;;;;;;10.30;6.50;;;8.40;99.90;;;;;;5075110;28;20220;-85
2022/04/06 03:56:44;;;;;;;11.80;8.80;;;8.40;99.90;;;;;;5075068;28;20503;-84
2022/04/06 03:59:09;;;;;;;15.40;9.20;;;8.50;99.90;;;;;;5075007;28;20167;-85
2022/04/06 04:01:35;;;;;;;16.50;9.07;;;8.50;99.90;;;;;;5074998;28;20172;-84
2022/04/06 04:04:04;;;;;;;15.47;9.00;;;8.50;99.90;;;;;;5075066;28;20174;-87
2022/04/06 04:06:30;;;;;;;17.20;9.93;;;8.50;99.90;;;;;;5074743;28;20180;-86
2022/04/06 04:08:56;;;;;;;18.10;9.67;;;8.50;99.90;;;;;;5075111;28;20430;-86
2022/04/06 04:11:21;;;;;;;20.83;10.83;;;8.50;99.90;;;;;;5074800;28;20992;-83
2022/04/06 04:13:46;;;;;;;20.53;12.50;;;8.50;99.90;;;;;;5074873;28;20178;-83
2022/04/06 04:16:12;;;;;;;17.17;9.73;;;8.50;99.90;;;;;;5074713;28;20186;-83
2022/04/06 04:18:37;;;;;;;19.30;12.80;;;8.50;99.90;;;;;;5074850;28;20229;-84
2022/04/06 04:23:50;;;;;;;19.20;12.33;;;8.40;99.90;;;;;;5074840;28;20292;-83
2022/04/06 04:26:15;;;;;;;23.83;13.13;;;8.40;99.90;;;;;;5074527;28;20449;-84
2022/04/06 04:28:44;;;;;;;21.07;15.57;;;8.40;99.90;;;;;;5074367;28;20181;-83
2022/04/06 04:31:09;;;;;;;19.50;12.23;;;8.50;99.90;;;;;;5074088;28;20199;-83
2022/04/06 04:33:35;;;;;;;18.90;12.57;;;8.40;99.90;;;;;;5074351;28;20417;-83
2022/04/06 04:36:01;;;;;;;20.03;13.70;;;8.40;99.90;;;;;;5074178;28;20198;-84
2022/04/06 04:38:26;;;;;;;23.47;13.83;;;8.50;99.90;;;;;;5074349;28;20170;-84
2022/04/06 04:40:52;;;;;;;25.60;14.43;;;8.40;99.90;;;;;;5074207;28;20176;-88
2022/04/06 04:43:17;;;;;;;19.40;12.97;;;8.40;99.90;;;;;;5074499;28;20172;-88
2022/04/06 04:45:43;;;;;;;22.47;14.13;;;8.50;99.90;;;;;;5073115;28;20168;-89
2022/04/06 04:48:09;;;;;;;22.60;14.30;;;8.40;99.90;;;;;;5073215;28;20636;-90
2022/04/06 04:50:34;;;;;;;24.20;14.90;;;8.40;99.90;;;;;;5074117;28;20171;-89
2022/04/06 04:53:00;;;;;;;25.97;16.33;;;8.50;99.90;;;;;;5074195;28;20741;-84
2022/04/06 04:55:25;;;;;;;17.43;13.27;;;8.50;99.90;;;;;;5073397;28;20263;-86
2022/04/06 04:57:51;;;;;;;21.97;14.17;;;8.50;99.90;;;;;;5074096;28;20180;-84
2022/04/06 05:00:19;;;;;;;26.53;16.07;;;8.50;99.90;;;;;;5074104;28;20620;-85
2022/04/06 05:02:45;;;;;;;23.77;15.87;;;8.60;99.90;;;;;;5072905;28;20635;-85
2022/04/06 05:05:11;;;;;;;25.83;16.57;;;8.50;99.90;;;;;;5073624;28;20417;-85
2022/04/06 05:07:37;;;;;;;23.33;17.40;;;8.50;99.90;;;;;;5072771;28;20177;-87
2022/04/06 05:10:08;;;;;;;21.77;14.80;;;8.50;99.90;;;;;;5074064;28;20415;-86
2022/04/06 05:12:34;;;;;;;21.03;15.03;;;8.60;99.90;;;;;;5073675;28;20568;-86
2022/04/06 05:15:00;;;;;;;29.53;18.00;;;8.60;99.90;;;;;;5072547;28;20432;-85
2022/04/06 05:17:26;;;;;;;22.67;16.47;;;8.60;99.90;;;;;;5073640;28;20821;-88
2022/04/06 05:19:53;;;;;;;22.60;17.10;;;8.60;99.90;;;;;;5073319;28;20412;-83
2022/04/06 05:22:18;;;;;;;34.07;19.47;;;8.60;99.90;;;;;;5072037;28;20569;-84
2022/04/06 05:24:44;;;;;;;26.60;18.13;;;8.70;99.90;;;;;;5073122;28;20905;-84
2022/04/06 05:27:09;;;;;;;28.57;20.37;;;8.70;99.90;;;;;;5073505;28;20643;-85
2022/04/06 05:29:35;;;;;;;28.03;18.60;;;8.70;99.90;;;;;;5073265;28;20171;-91
2022/04/06 05:32:01;;;;;;;31.00;20.60;;;8.70;99.90;;;;;;5073620;28;20663;-90
2022/04/06 05:34:26;;;;;;;32.30;20.00;;;8.70;99.90;;;;;;5073774;28;20786;-87
2022/04/06 05:36:52;;;;;;;30.03;20.90;;;8.70;99.90;;;;;;5072949;28;20417;-85
2022/04/06 05:39:20;;;;;;;25.50;18.07;;;8.70;99.90;;;;;;5073480;28;20247;-85
2022/04/06 05:41:49;;;;;;;29.00;18.27;;;8.70;99.90;;;;;;5073037;28;20178;-84
2022/04/06 05:44:16;;;;;;;26.30;18.43;;;8.70;99.90;;;;;;5072678;28;20409;-86
2022/04/06 05:46:42;;;;;;;29.57;20.43;;;8.70;99.90;;;;;;5071954;28;20442;-84
2022/04/06 05:49:08;;;;;;;38.13;20.57;;;8.70;99.90;;;;;;5073093;28;20919;-85
2022/04/06 05:51:34;;;;;;;31.33;20.47;;;8.80;99.90;;;;;;5071462;28;20482;-85
2022/04/06 05:54:00;;;;;;;27.57;17.87;;;8.80;99.90;;;;;;5073011;28;20435;-84
2022/04/06 05:56:26;;;;;;;24.93;16.87;;;8.90;99.90;;;;;;5073023;28;20502;-85
2022/04/06 05:58:51;;;;;;;29.93;20.23;;;8.90;99.90;;;;;;5072913;28;20495;-83
2022/04/06 06:01:17;;;;;;;28.57;18.90;;;8.90;99.90;;;;;;5072682;28;20628;-84
2022/04/06 06:03:42;;;;;;;24.67;17.20;;;8.90;99.90;;;;;;5072709;28;20181;-84
2022/04/06 06:06:08;;;;;;;26.20;16.53;;;9.00;99.90;;;;;;5072387;28;20168;-84
2022/04/06 06:08:33;;;;;;;21.90;15.33;;;8.90;99.90;;;;;;5072889;28;20563;-84
2022/04/06 06:10:59;;;;;;;22.20;14.03;;;9.00;99.90;;;;;;5072920;28;20274;-84
2022/04/06 06:13:25;;;;;;;29.80;17.20;;;9.10;99.90;;;;;;5073274;28;20173;-85
2022/04/06 06:15:50;;;;;;;30.27;17.80;;;9.00;99.90;;;;;;5072714;28;20425;-85
2022/04/06 06:18:16;;;;;;;18.47;13.17;;;9.00;99.90;;;;;;5072573;28;20183;-84
2022/04/06 06:20:42;;;;;;;18.97;13.03;;;9.00;99.90;;;;;;5072157;28;20176;-84
2022/04/06 06:23:08;;;;;;;22.47;14.13;;;9.00;99.90;;;;;;5071288;28;20187;-84
2022/04/06 06:25:33;;;;;;;23.67;15.60;;;9.00;99.90;;;;;;5072632;28;20184;-84
2022/04/06 06:27:59;;;;;;;21.03;12.47;;;9.00;99.90;;;;;;5072392;28;20414;-83
2022/04/06 06:30:27;;;;;;;18.87;12.37;;;9.00;99.90;;;;;;5072491;28;20181;-84
2022/04/06 06:32:55;;;;;;;23.53;12.70;;;9.00;99.90;;;;;;5072480;28;20293;-85
2022/04/06 06:35:21;;;;;;;20.90;13.87;;;9.10;99.90;;;;;;5070655;28;20505;-84
2022/04/06 06:37:48;;;;;;;22.40;12.23;;;9.00;99.90;;;;;;5072419;28;20989;-84
2022/04/06 06:40:16;;;;;;;23.33;12.30;;;9.10;99.90;;;;;;5072425;28;20686;-84
2022/04/06 06:42:41;;;;;;;22.57;13.83;;;9.10;99.90;;;;;;5072246;28;20504;-84
2022/04/06 06:45:07;;;;;;;19.77;12.70;;;9.10;99.90;;;;;;5072139;28;20447;-84
2022/04/06 06:47:33;;;;;;;17.60;11.13;;;9.20;99.90;;;;;;5072242;28;20166;-84
2022/04/06 06:49:58;;;;;;;30.63;14.63;;;9.20;99.90;;;;;;5070740;28;20409;-84
2022/04/06 06:52:24;;;;;;;18.10;11.03;;;9.30;99.90;;;;;;5072239;28;20209;-84
2022/04/06 06:54:49;;;;;;;23.30;11.93;;;9.50;99.90;;;;;;5074589;28;20260;-84
2022/04/06 06:57:15;;;;;;;20.73;12.43;;;9.50;99.90;;;;;;5076194;28;20175;-85
2022/04/06 06:59:43;;;;;;;19.77;11.63;;;9.50;99.90;;;;;;5075952;28;20172;-84
2022/04/06 07:02:11;;;;;;;20.77;12.43;;;9.50;99.90;;;;;;5070469;28;20752;-84
2022/04/06 07:04:37;;;;;;;20.30;10.80;;;9.50;99.90;;;;;;5075226;28;20467;-86
2022/04/06 07:07:03;;;;;;;20.47;12.20;;;9.50;99.90;;;;;;5075902;28;20430;-89
2022/04/06 07:09:28;;;;;;;21.40;12.93;;;9.50;99.90;;;;;;5075888;28;20176;-85
2022/04/06 07:11:54;;;;;;;22.17;12.30;;;9.50;99.90;;;;;;5075448;28;20854;-84
2022/04/06 07:14:20;;;;;;;20.67;12.03;;;9.50;99.90;;;;;;5075539;28;20205;-85
2022/04/06 07:16:46;;;;;;;20.77;13.30;;;9.50;99.90;;;;;;5075904;28;20251;-89
2022/04/06 07:19:11;;;;;;;19.60;12.17;;;9.50;99.90;;;;;;5058026;28;20564;-85
2022/04/06 07:21:37;;;;;;;20.53;12.23;;;9.50;99.90;;;;;;5057652;28;20214;-85
2022/04/06 07:24:03;;;;;;;14.73;10.63;;;9.40;99.90;;;;;;5057361;28;20261;-85
2022/04/06 07:26:29;;;;;;;17.67;11.47;;;9.40;99.90;;;;;;5075713;28;20171;-85
2022/04/06 07:28:55;;;;;;;17.97;11.83;;;9.50;99.90;;;;;;5075572;28;20410;-85
2022/04/06 07:31:20;;;;;;;15.43;12.33;;;9.50;99.90;;;;;;5075456;28;20453;-84
2022/04/06 07:33:46;;;;;;;15.97;10.37;;;9.60;99.90;;;;;;5075292;28;20196;-87
2022/04/06 07:36:14;;;;;;;20.67;11.83;;;9.50;99.90;;;;;;5074704;28;20201;-87
2022/04/06 07:38:40;;;;;;;18.60;12.20;;;9.50;99.90;;;;;;5075086;28;20168;-84
2022/04/06 07:41:05;;;;;;;19.27;11.23;;;9.60;99.90;;;;;;5074904;28;20479;-84
2022/04/06 07:43:31;;;;;;;14.10;11.77;;;9.60;99.90;;;;;;5056972;28;20213;-84
2022/04/06 07:45:57;;;;;;;17.53;11.33;;;9.70;99.90;;;;;;5074963;28;20232;-85
2022/04/06 07:48:25;;;;;;;19.50;12.43;;;9.70;99.90;;;;;;5074678;28;20629;-84
2022/04/06 07:50:54;;;;;;;13.97;10.10;;;9.80;99.90;;;;;;5074397;28;20557;-84
2022/04/06 07:53:22;;;;;;;17.90;11.70;;;9.70;99.90;;;;;;5126988;22;20526;-86
2022/04/06 07:55:49;;;;;;;16.60;10.63;;;9.80;99.90;;;;;;5055555;28;20415;-89
2022/04/06 07:58:15;;;;;;;17.30;11.47;;;9.80;99.90;;;;;;5056660;28;20452;-91
2022/04/06 08:00:41;;;;;;;20.30;11.07;;;9.70;99.90;;;;;;5074443;28;20448;-92
2022/04/06 08:03:07;;;;;;;19.70;12.50;;;9.70;99.90;;;;;;5074183;28;20413;-87
2022/04/06 08:05:32;;;;;;;21.03;12.30;;;9.70;99.90;;;;;;5044308;28;20246;-88
2022/04/06 08:07:58;;;;;;;15.10;11.33;;;9.70;99.90;;;;;;5036559;28;20908;-90
2022/04/06 08:10:23;;;;;;;16.93;11.50;;;9.90;99.90;;;;;;5039454;28;20183;-88
2022/04/06 08:12:49;;;;;;;16.33;11.30;;;9.90;99.90;;;;;;5073518;28;20214;-87
2022/04/06 08:15:16;;;;;;;17.93;11.63;;;10.00;99.90;;;;;;5073410;28;20171;-87
2022/04/06 08:17:44;;;;;;;14.83;10.17;;;10.00;99.90;;;;;;5074994;28;20170;-90
2022/04/06 08:20:11;;;;;;;16.30;10.73;;;10.00;99.90;;;;;;5055774;28;20413;-90
2022/04/06 08:22:38;;;;;;;18.53;12.10;;;9.90;99.90;;;;;;5089919;28;20427;-90
2022/04/06 08:25:04;;;;;;;17.00;11.43;;;9.90;99.90;;;;;;5073870;28;20961;-88
2022/04/06 08:27:31;;;;;;;15.50;10.07;;;9.90;99.90;;;;;;5055706;28;20423;-89
2022/04/06 08:29:56;;;;;;;15.70;10.67;;;10.00;99.90;;;;;;5055138;28;20431;-89
2022/04/06 08:32:22;;;;;;;16.03;10.77;;;10.00;99.90;;;;;;5074282;28;20538;-92
2022/04/06 08:34:48;;;;;;;12.53;10.97;;;9.90;99.90;;;;;;5055764;28;20257;-91
2022/04/06 08:37:13;;;;;;;22.17;11.70;;;10.00;99.90;;;;;;5055847;28;20200;-87
2022/04/06 08:39:39;;;;;;;13.40;8.60;;;10.00;99.90;;;;;;5053760;28;20616;-85
2022/04/06 08:42:05;;;;;;;15.40;11.17;;;10.00;99.90;;;;;;5071360;28;20177;-88
2022/04/06 08:44:30;;;;;;;17.80;10.90;;;10.00;99.90;;;;;;5071605;28;20247;-85
2022/04/06 08:47:03;;;;;;;16.33;10.30;;;10.00;99.90;;;;;;5054252;28;20188;-87
2022/04/06 08:49:29;;;;;;;13.90;10.33;;;10.10;99.90;;;;;;5053254;28;20175;-86
2022/04/06 08:51:56;;;;;;;14.17;10.03;;;10.10;99.90;;;;;;5055275;28;20458;-88
2022/04/06 08:54:23;;;;;;;12.60;9.37;;;10.10;99.90;;;;;;5055968;28;20470;-89
2022/04/06 08:56:48;;;;;;;15.70;10.17;;;10.00;99.90;;;;;;5054966;28;20452;-85
2022/04/06 08:59:14;;;;;;;17.87;10.70;;;10.00;99.90;;;;;;5072759;28;20418;-86
2022/04/06 09:01:40;;;;;;;13.03;10.07;;;10.00;99.90;;;;;;5054907;28;20458;-89
2022/04/06 09:04:05;;;;;;;12.53;7.67;;;10.00;99.90;;;;;;5055247;28;20174;-86
2022/04/06 09:06:42;;;;;;;18.80;10.23;;;10.00;99.90;;;;;;5072510;28;20173;-87
2022/04/06 09:09:11;;;;;;;15.80;8.50;;;10.10;99.90;;;;;;5055055;28;20180;-90
2022/04/06 09:11:44;;;;;;;11.00;8.67;;;10.10;99.90;;;;;;5073086;28;20522;-82
2022/04/06 09:14:11;;;;;;;15.80;8.80;;;10.10;99.90;;;;;;5072760;28;20421;-85
2022/04/06 09:16:37;;;;;;;13.03;9.87;;;10.20;99.90;;;;;;5072865;28;20419;-90
2022/04/06 09:19:11;;;;;;;11.57;8.97;;;10.20;99.90;;;;;;5054490;28;20923;-85
2022/04/06 09:21:42;;;;;;;15.83;9.50;;;10.20;99.90;;;;;;5072685;28;20496;-86
2022/04/06 09:24:14;;;;;;;10.30;7.57;;;10.20;99.90;;;;;;5054645;28;20519;-86
2022/04/06 09:26:40;;;;;;;16.40;7.60;;;10.20;99.90;;;;;;5054678;28;20423;-87
2022/04/06 09:29:06;;;;;;;9.70;6.83;;;10.20;99.90;;;;;;5072225;28;20560;-88
2022/04/06 09:31:38;;;;;;;11.87;7.50;;;10.20;99.90;;;;;;5054322;28;20233;-84
2022/04/06 09:34:04;;;;;;;14.00;7.30;;;10.20;99.90;;;;;;5072484;28;20421;-88
2022/04/06 09:36:31;;;;;;;13.10;8.23;;;10.20;99.90;;;;;;5072317;28;20412;-86
2022/04/06 09:38:57;;;;;;;9.17;7.53;;;10.20;99.90;;;;;;5072154;28;20485;-86
2022/04/06 09:41:24;;;;;;;12.60;6.90;;;10.20;99.90;;;;;;5071964;28;20517;-88
2022/04/06 09:43:51;;;;;;;13.77;7.93;;;10.20;99.90;;;;;;5072123;28;20430;-86
2022/04/06 09:49:10;;;;;;;7.77;5.43;;;10.20;99.90;;;;;;5071592;28;20908;-88
2022/04/06 09:51:39;;;;;;;7.63;4.70;;;10.20;99.90;;;;;;5070590;28;20468;-88
2022/04/06 09:54:07;;;;;;;9.97;5.60;;;10.20;99.90;;;;;;5070822;28;20449;-88
2022/04/06 09:56:33;;;;;;;10.90;5.00;;;10.20;99.90;;;;;;5054928;28;20782;-87
2022/04/06 09:58:59;;;;;;;8.83;5.40;;;10.20;99.90;;;;;;5054959;28;20747;-85
2022/04/06 10:01:31;;;;;;;11.80;5.70;;;10.20;99.90;;;;;;5072902;28;20475;-87
2022/04/06 10:04:06;;;;;;;9.63;5.33;;;10.20;99.90;;;;;;5072921;28;20414;-86
2022/04/06 10:06:34;;;;;;;6.80;5.00;;;10.20;99.90;;;;;;5072926;28;20418;-85
2022/04/06 10:09:05;;;;;;;14.33;5.50;;;10.00;99.90;;;;;;5054813;28;20410;-88
2022/04/06 10:11:33;;;;;;;9.50;5.40;;;10.00;99.90;;;;;;5072783;28;20451;-87
2022/04/06 10:14:00;;;;;;;6.20;4.40;;;10.00;99.90;;;;;;5054841;28;21118;-87
2022/04/06 10:16:27;;;;;;;9.43;5.27;;;10.00;99.90;;;;;;5055993;28;20502;-86
2022/04/06 10:18:54;;;;;;;6.77;4.53;;;10.00;99.90;;;;;;5055465;28;20428;-86
2022/04/06 10:21:29;;;;;;;9.00;5.00;;;9.90;99.90;;;;;;5073235;28;20413;-86
2022/04/06 10:24:32;;;;;;;8.73;5.00;;;9.90;99.90;;;;;;5055536;28;20896;-86
2022/04/06 10:27:14;;;;;;;8.93;4.80;;;9.80;99.90;;;;;;5056588;28;20448;-87
2022/04/06 10:30:12;;;;;;;10.50;6.03;;;9.80;99.90;;;;;;5080648;28;20419;-88
2022/04/06 10:32:42;;;;;;;7.13;4.70;;;9.90;99.90;;;;;;5083360;28;20750;-88
2022/04/06 10:35:31;;;;;;;9.23;5.37;;;9.90;99.90;;;;;;5083187;28;20420;-88
2022/04/06 10:37:56;;;;;;;7.10;4.93;;;10.00;99.90;;;;;;5082041;28;20487;-88
2022/04/06 10:40:23;;;;;;;9.43;5.17;;;10.00;99.90;;;;;;5064922;28;20923;-86
2022/04/06 10:42:49;;;;;;;6.50;5.70;;;10.00;99.90;;;;;;5082821;28;20176;-85
2022/04/06 10:45:24;;;;;;;6.77;4.80;;;10.00;99.90;;;;;;5063965;28;20413;-86
2022/04/06 10:48:18;;;;;;;9.10;5.90;;;10.00;99.90;;;;;;5064772;28;20417;-87
2022/04/06 10:50:48;;;;;;;8.10;5.60;;;9.90;99.90;;;;;;5060360;28;20483;-89
2022/04/06 10:53:23;;;;;;;6.67;5.10;;;10.00;99.90;;;;;;5064937;28;21009;-86
2022/04/06 10:56:12;;;;;;;7.47;5.67;;;9.90;99.90;;;;;;5066237;28;20408;-88
2022/04/06 10:59:07;;;;;;;7.70;4.80;;;9.90;99.90;;;;;;5064725;28;20522;-87
2022/04/06 11:01:34;;;;;;;11.20;4.27;;;10.00;99.90;;;;;;5061554;28;20411;-87
2022/04/06 11:04:04;;;;;;;9.23;4.80;;;10.00;99.90;;;;;;5076616;28;20461;-87
2022/04/06 11:06:56;;;;;;;9.30;4.30;;;10.00;99.90;;;;;;5058518;28;21081;-87
2022/04/06 11:12:10;;;;;;;7.57;4.27;;;10.30;99.90;;;;;;5075927;28;20616;-86
2022/04/06 11:14:36;;;;;;;6.77;4.47;;;10.20;99.90;;;;;;5076117;28;20422;-89
2022/04/06 11:17:21;;;;;;;5.97;4.60;;;10.30;99.90;;;;;;5076119;28;20405;-88
2022/04/06 11:19:50;;;;;;;8.47;4.50;;;10.30;99.90;;;;;;5057382;28;20179;-87
2022/04/06 11:22:16;;;;;;;11.10;4.67;;;10.30;99.90;;;;;;5057852;28;20480;-87
2022/04/06 11:24:43;;;;;;;5.33;4.13;;;10.30;99.90;;;;;;5057581;28;20438;-87
2022/04/06 11:27:09;;;;;;;7.10;4.80;;;10.50;99.90;;;;;;5075568;28;20259;-87
2022/04/06 11:29:36;;;;;;;12.27;5.17;;;10.50;99.90;;;;;;5057661;28;21006;-87
2022/04/06 11:32:06;;;;;;;6.30;3.77;;;10.50;99.90;;;;;;5075463;28;20288;-84
2022/04/06 11:34:34;;;;;;;5.33;4.27;;;10.50;99.90;;;;;;5057301;28;20477;-87
2022/04/06 11:37:01;;;;;;;9.13;4.83;;;10.50;99.90;;;;;;5057794;28;20935;-88
2022/04/06 11:39:31;;;;;;;7.60;3.67;;;10.40;99.90;;;;;;5073331;28;20418;-87
2022/04/06 11:41:58;;;;;;;7.70;4.73;;;10.40;99.90;;;;;;5057025;28;20454;-86
2022/04/06 11:44:24;;;;;;;7.40;4.40;;;10.40;99.90;;;;;;5056594;28;20421;-88
2022/04/06 11:46:52;;;;;;;6.73;4.57;;;10.40;99.90;;;;;;5074207;28;20431;-88
2022/04/06 11:49:24;;;;;;;9.10;4.47;;;10.40;99.90;;;;;;5055753;28;20420;-86
2022/04/06 11:51:57;;;;;;;11.87;5.87;;;10.40;99.90;;;;;;5057402;28;20474;-87
2022/04/06 11:54:24;;;;;;;9.70;4.87;;;10.50;99.90;;;;;;5036880;28;20955;-87
2022/04/06 11:56:54;;;;;;;6.57;4.70;;;10.50;91.30;;;;;;5053971;28;20511;-87
2022/04/06 11:59:22;;;;;;;10.37;6.30;;;10.60;66.70;;;;;;5076387;28;20418;-85
2022/04/06 12:01:51;;;;;;;6.73;4.30;;;10.50;92.90;;;;;;5056321;28;20422;-86
2022/04/06 12:04:22;;;;;;;7.53;4.20;;;10.50;63.00;;;;;;5074642;28;20409;-87
2022/04/06 12:06:53;;;;;;;12.20;6.10;;;10.60;81.00;;;;;;5074103;28;20428;-86
2022/04/06 12:09:20;;;;;;;7.60;4.07;;;10.70;45.00;;;;;;5055542;28;20463;-86
2022/04/06 12:11:53;;;;;;;6.23;3.63;;;10.70;55.90;;;;;;5073883;28;20453;-87
2022/04/06 12:14:19;;;;;;;5.80;4.83;;;10.70;92.10;;;;;;5075194;28;20428;-87
2022/04/06 12:16:47;;;;;;;11.13;4.00;;;10.60;99.90;;;;;;5075300;28;20411;-87
2022/04/06 12:19:13;;;;;;;7.73;5.23;;;10.70;99.90;;;;;;5069881;28;21014;-90
2022/04/06 12:21:43;;;;;;;12.50;4.40;;;10.70;99.90;;;;;;5073652;28;20491;-86
2022/04/06 12:24:12;;;;;;;6.33;3.83;;;10.60;99.90;;;;;;5073937;28;20467;-88
2022/04/06 12:26:45;;;;;;;7.17;4.07;;;10.70;99.90;;;;;;5074218;28;20415;-85
2022/04/06 12:29:16;;;;;;;7.47;4.47;;;10.60;99.90;;;;;;5074079;28;20983;-87
2022/04/06 12:31:43;;;;;;;6.03;4.53;;;10.60;99.90;;;;;;5055739;28;21014;-88
2022/04/06 12:34:25;;;;;;;7.93;4.20;;;10.60;99.90;;;;;;5055460;28;20506;-86
2022/04/06 12:36:50;;;;;;;9.27;4.60;;;10.50;99.90;;;;;;5055701;28;20429;-87
2022/04/06 12:39:19;;;;;;;8.73;4.97;;;10.30;99.90;;;;;;5073379;28;20856;-86
2022/04/06 12:41:59;;;;;;;5.10;4.23;;;10.30;99.90;;;;;;5073659;28;20542;-86
2022/04/06 12:44:29;;;;;;;5.57;4.27;;;10.20;99.90;;;;;;5073196;28;20424;-87
2022/04/06 12:46:55;;;;;;;9.50;5.70;;;10.20;99.90;;;;;;5073341;28;20415;-87
2022/04/06 12:49:37;;;;;;;8.37;5.17;;;10.20;99.90;;;;;;5054458;28;20474;-86
2022/04/06 12:52:02;;;;;;;10.17;5.43;;;10.30;99.90;;;;;;5054990;28;20468;-86
2022/04/06 12:54:32;;;;;;;7.43;4.63;;;10.40;99.90;;;;;;5072705;28;20556;-86
2022/04/06 12:57:14;;;;;;;9.30;3.87;;;10.30;99.90;;;;;;5073204;28;20190;-86
2022/04/06 12:59:41;;;;;;;7.50;5.10;;;10.30;99.90;;;;;;5071248;28;20478;-86